Time;durP1;ratioP1;P1;durP2;ratioP2;P2;SDS_P1;SDS_P2;PMS_P1;PMS_P2;Temp;Humidity;BMP_temperature;BMP_pressure;BME280_temperature;BME280_humidity;BME280_pressure;Samples;Min_cycle;Max_cycle;Signal;HPM_P1;HPM_P2
2021/03/08 00:00:26;;;;;;;15.30;11.93;;;2.40;67.40;;;;;;5024163;28;20527;-41
2021/03/08 00:02:55;;;;;;;16.40;12.50;;;2.40;67.40;;;;;;5025291;28;20459;-41
2021/03/08 00:05:25;;;;;;;13.30;11.63;;;2.40;67.50;;;;;;5024547;28;20460;-41
2021/03/08 00:07:52;;;;;;;17.17;12.30;;;2.40;67.70;;;;;;5025804;28;20554;-41
2021/03/08 00:10:19;;;;;;;12.60;11.30;;;2.30;67.80;;;;;;5025239;28;20495;-41
2021/03/08 00:12:49;;;;;;;14.67;10.90;;;2.30;67.80;;;;;;5024767;28;20538;-41
2021/03/08 00:15:18;;;;;;;15.77;12.00;;;2.20;67.90;;;;;;5027247;28;20534;-41
2021/03/08 00:17:52;;;;;;;14.67;10.13;;;2.20;68.00;;;;;;5028175;28;20458;-41
2021/03/08 00:20:27;;;;;;;13.90;10.83;;;2.20;67.90;;;;;;5025236;28;20884;-41
2021/03/08 00:22:57;;;;;;;12.80;11.10;;;2.20;67.90;;;;;;5008202;28;20858;-41
2021/03/08 00:25:29;;;;;;;15.27;11.27;;;2.10;67.90;;;;;;5026594;28;20975;-41
2021/03/08 00:27:57;;;;;;;14.87;12.10;;;2.10;68.00;;;;;;5022624;28;20468;-41
2021/03/08 00:30:23;;;;;;;14.23;10.90;;;2.10;68.00;;;;;;5023486;28;21004;-41
2021/03/08 00:32:52;;;;;;;13.30;10.47;;;2.00;67.80;;;;;;4992392;28;20473;-41
2021/03/08 00:35:19;;;;;;;13.67;12.10;;;2.00;67.80;;;;;;5022901;28;21007;-41
2021/03/08 00:37:52;;;;;;;12.50;10.07;;;2.00;67.80;;;;;;5026292;28;20590;-41
2021/03/08 00:40:25;;;;;;;11.67;9.70;;;2.00;67.80;;;;;;5029914;28;21003;-41
2021/03/08 00:42:51;;;;;;;13.10;10.40;;;2.00;68.10;;;;;;5011153;28;20468;-41
2021/03/08 00:45:19;;;;;;;15.73;10.30;;;1.90;68.10;;;;;;5010402;28;20592;-41
2021/03/08 00:47:46;;;;;;;13.57;10.50;;;1.90;68.10;;;;;;5011819;28;20590;-41
2021/03/08 00:50:21;;;;;;;11.93;10.60;;;1.90;68.10;;;;;;5011388;28;20471;-41
2021/03/08 00:52:48;;;;;;;13.43;10.30;;;1.80;68.30;;;;;;5028649;28;20464;-41
2021/03/08 00:55:18;;;;;;;15.00;10.47;;;1.80;68.40;;;;;;5011662;28;20534;-41
2021/03/08 00:57:44;;;;;;;10.83;9.70;;;1.80;68.60;;;;;;5025115;28;20459;-41
2021/03/08 01:00:13;;;;;;;13.27;10.37;;;1.80;68.70;;;;;;5038230;28;20538;-41
2021/03/08 01:02:44;;;;;;;14.90;10.73;;;1.80;68.80;;;;;;5023483;28;20561;-41
2021/03/08 01:05:10;;;;;;;13.33;10.23;;;1.80;68.90;;;;;;5011126;28;20986;-41
2021/03/08 01:07:37;;;;;;;13.37;11.47;;;1.80;68.90;;;;;;5029515;28;20543;-41
2021/03/08 01:10:15;;;;;;;12.53;10.17;;;1.80;69.00;;;;;;5035069;28;21027;-41
2021/03/08 01:12:41;;;;;;;13.87;10.70;;;1.80;69.00;;;;;;5011721;28;20471;-41
2021/03/08 01:15:09;;;;;;;14.67;9.70;;;1.80;69.00;;;;;;5026539;28;20538;-41
2021/03/08 01:17:36;;;;;;;11.80;9.80;;;1.70;69.00;;;;;;5026812;28;21005;-41
2021/03/08 01:20:05;;;;;;;13.80;10.27;;;1.70;69.10;;;;;;5007982;28;20521;-41
2021/03/08 01:22:32;;;;;;;12.60;9.77;;;1.70;69.00;;;;;;5023696;28;20500;-41
2021/03/08 01:24:58;;;;;;;10.70;9.20;;;1.70;69.00;;;;;;5026127;28;20559;-41
2021/03/08 01:27:24;;;;;;;10.13;8.97;;;1.70;69.00;;;;;;5009086;28;20513;-41
2021/03/08 01:29:57;;;;;;;14.30;9.77;;;1.60;69.20;;;;;;4997204;28;20459;-41
2021/03/08 01:32:23;;;;;;;13.93;10.03;;;1.60;69.20;;;;;;5029299;28;20447;-41
2021/03/08 01:34:50;;;;;;;12.63;10.07;;;1.60;69.20;;;;;;5027264;28;20525;-41
2021/03/08 01:37:16;;;;;;;13.30;9.80;;;1.60;69.30;;;;;;5007105;28;20558;-41
2021/03/08 01:39:43;;;;;;;12.53;10.90;;;1.50;69.40;;;;;;5026015;28;20505;-41
2021/03/08 01:42:16;;;;;;;17.13;9.90;;;1.50;69.40;;;;;;5027985;28;20589;-41
2021/03/08 01:44:42;;;;;;;11.83;9.97;;;1.50;69.60;;;;;;5026487;28;20618;-41
2021/03/08 01:47:12;;;;;;;14.57;10.50;;;1.50;69.80;;;;;;5028323;28;20542;-41
2021/03/08 01:49:39;;;;;;;13.10;9.93;;;1.50;69.90;;;;;;5009906;28;20459;-41
2021/03/08 01:52:07;;;;;;;11.80;9.43;;;1.50;69.90;;;;;;5019928;28;20498;-41
2021/03/08 01:54:34;;;;;;;12.10;10.40;;;1.50;69.90;;;;;;5007183;28;20560;-41
2021/03/08 01:57:00;;;;;;;15.20;11.00;;;1.50;70.00;;;;;;5009117;28;20487;-41
2021/03/08 01:59:27;;;;;;;12.47;9.83;;;1.50;70.00;;;;;;5026558;28;20957;-41
2021/03/08 02:02:03;;;;;;;14.00;10.37;;;1.50;70.00;;;;;;5026882;28;20482;-41
2021/03/08 02:04:30;;;;;;;13.07;10.23;;;1.50;70.00;;;;;;4997136;28;20455;-41
2021/03/08 02:06:56;;;;;;;23.80;12.00;;;1.40;70.00;;;;;;5009163;28;20556;-41
2021/03/08 02:09:22;;;;;;;13.73;10.20;;;1.40;69.90;;;;;;5027917;28;20546;-41
2021/03/08 02:11:59;;;;;;;13.20;9.50;;;1.40;69.90;;;;;;5009082;28;20466;-41
2021/03/08 02:14:54;;;;;;;12.70;9.20;;;1.40;69.90;;;;;;5019916;28;20467;-41
2021/03/08 02:17:25;;;;;;;14.87;10.43;;;1.40;70.00;;;;;;5022019;28;21057;-41
2021/03/08 02:20:16;;;;;;;11.67;9.37;;;1.40;69.90;;;;;;5027088;28;20489;-41
2021/03/08 02:23:13;;;;;;;13.20;9.50;;;1.40;70.00;;;;;;5026651;28;20998;-41
2021/03/08 02:25:51;;;;;;;13.97;9.77;;;1.40;70.00;;;;;;5027343;28;20545;-41
2021/03/08 02:28:30;;;;;;;13.27;9.83;;;1.30;70.00;;;;;;5023654;28;20550;-41
2021/03/08 02:30:59;;;;;;;11.40;9.90;;;1.30;70.00;;;;;;5025070;28;20460;-41
2021/03/08 02:33:32;;;;;;;12.13;9.97;;;1.30;70.10;;;;;;5025471;28;20491;-41
2021/03/08 02:36:03;;;;;;;14.00;9.30;;;1.30;70.10;;;;;;4992336;28;21572;-41
2021/03/08 02:38:33;;;;;;;12.00;9.33;;;1.30;70.30;;;;;;5009977;28;21038;-41
2021/03/08 02:41:20;;;;;;;12.10;10.20;;;1.20;70.10;;;;;;5008725;28;20526;-41
2021/03/08 02:43:54;;;;;;;14.53;10.83;;;1.20;70.20;;;;;;5016074;28;20492;-41
2021/03/08 02:46:29;;;;;;;15.10;10.23;;;1.20;70.30;;;;;;5027871;28;20464;-41
2021/03/08 02:49:02;;;;;;;14.80;9.70;;;1.20;70.40;;;;;;5023146;28;20471;-41
2021/03/08 02:51:32;;;;;;;10.80;9.70;;;1.20;70.40;;;;;;5025718;28;20556;-41
2021/03/08 02:54:02;;;;;;;18.87;11.53;;;1.20;70.50;;;;;;5040392;28;20903;-41
2021/03/08 02:56:34;;;;;;;12.03;10.03;;;1.10;70.50;;;;;;5023136;28;20953;-41
2021/03/08 02:59:04;;;;;;;10.63;9.13;;;1.10;70.50;;;;;;5025121;28;20558;-41
2021/03/08 03:01:35;;;;;;;13.00;9.23;;;1.10;70.50;;;;;;5008506;28;20519;-41
2021/03/08 03:04:03;;;;;;;12.13;9.30;;;1.10;70.60;;;;;;5027132;28;20460;-41
2021/03/08 03:06:32;;;;;;;11.17;9.77;;;1.10;70.70;;;;;;5005948;28;20472;-41
2021/03/08 03:09:03;;;;;;;13.70;8.60;;;1.10;70.70;;;;;;5027618;28;20497;-41
2021/03/08 03:11:32;;;;;;;13.27;9.77;;;1.10;70.80;;;;;;5020850;28;20511;-41
2021/03/08 03:14:03;;;;;;;11.10;8.47;;;1.10;70.80;;;;;;5025392;28;20495;-41
2021/03/08 03:16:33;;;;;;;12.60;10.00;;;1.10;70.80;;;;;;5024441;28;20463;-41
2021/03/08 03:19:01;;;;;;;10.27;8.80;;;1.10;70.80;;;;;;5007978;28;20913;-41
2021/03/08 03:21:31;;;;;;;11.23;9.33;;;1.00;70.80;;;;;;5022388;28;20476;-41
2021/03/08 03:24:01;;;;;;;11.67;9.13;;;1.00;70.80;;;;;;5039685;28;20911;-41
2021/03/08 03:26:30;;;;;;;11.57;9.60;;;1.00;70.70;;;;;;5019094;28;20574;-41
2021/03/08 03:28:58;;;;;;;14.57;10.07;;;1.00;70.80;;;;;;5026407;28;20459;-41
2021/03/08 03:31:30;;;;;;;11.10;8.93;;;1.00;70.80;;;;;;5023380;28;20466;-41
2021/03/08 03:33:58;;;;;;;17.57;9.63;;;1.00;70.80;;;;;;5006713;28;20468;-40
2021/03/08 03:36:29;;;;;;;15.47;10.13;;;0.90;70.80;;;;;;5005661;28;20565;-41
2021/03/08 03:38:57;;;;;;;12.80;9.13;;;0.90;70.80;;;;;;5021909;28;20551;-41
2021/03/08 03:41:24;;;;;;;11.80;8.90;;;0.90;70.80;;;;;;5009933;28;20574;-41
2021/03/08 03:43:51;;;;;;;9.87;8.13;;;0.90;70.80;;;;;;5027291;28;21090;-40
2021/03/08 03:46:17;;;;;;;12.00;9.13;;;0.90;70.90;;;;;;5006077;28;20463;-41
2021/03/08 03:48:44;;;;;;;9.93;7.30;;;0.90;70.90;;;;;;5007982;28;20459;-41
2021/03/08 03:51:11;;;;;;;11.60;8.80;;;0.90;71.10;;;;;;5010104;28;20515;-41
2021/03/08 03:53:39;;;;;;;13.03;9.20;;;0.80;71.10;;;;;;5007640;28;20977;-41
2021/03/08 03:56:11;;;;;;;11.23;8.80;;;0.80;71.10;;;;;;5024642;28;20455;-41
2021/03/08 03:58:45;;;;;;;13.50;9.00;;;0.80;71.20;;;;;;5008039;28;20468;-41
2021/03/08 04:01:17;;;;;;;11.60;8.33;;;0.80;71.20;;;;;;5025262;28;20562;-41
2021/03/08 04:04:05;;;;;;;9.13;8.10;;;0.80;71.20;;;;;;5023095;28;20832;-41
2021/03/08 04:06:36;;;;;;;12.57;9.27;;;0.80;71.30;;;;;;5036863;28;20449;-41
2021/03/08 04:09:05;;;;;;;13.83;8.70;;;0.80;71.40;;;;;;5024623;28;20559;-41
2021/03/08 04:11:33;;;;;;;12.67;7.90;;;0.80;71.40;;;;;;5024818;28;20546;-41
2021/03/08 04:14:02;;;;;;;13.70;9.67;;;0.80;71.50;;;;;;5022301;28;20498;-41
2021/03/08 04:16:35;;;;;;;9.27;8.30;;;0.80;71.50;;;;;;4990806;28;21073;-41
2021/03/08 04:19:02;;;;;;;10.23;8.30;;;0.80;71.50;;;;;;5021494;28;20558;-41
2021/03/08 04:21:39;;;;;;;10.63;8.57;;;0.70;71.50;;;;;;5025393;28;20581;-41
2021/03/08 04:24:08;;;;;;;14.23;10.00;;;0.80;71.60;;;;;;5026868;28;20885;-41
2021/03/08 04:26:39;;;;;;;15.63;10.20;;;0.70;71.60;;;;;;5020843;28;20908;-41
2021/03/08 04:29:10;;;;;;;14.27;8.83;;;0.70;71.70;;;;;;5027553;28;21022;-41
2021/03/08 04:31:37;;;;;;;17.20;10.13;;;0.70;71.70;;;;;;5025213;28;20451;-41
2021/03/08 04:34:05;;;;;;;11.20;8.93;;;0.70;71.80;;;;;;4994161;28;20463;-41
2021/03/08 04:36:41;;;;;;;12.00;8.17;;;0.70;71.80;;;;;;5027367;28;20516;-41
2021/03/08 04:39:10;;;;;;;9.83;8.50;;;0.70;71.80;;;;;;5026474;28;20534;-41
2021/03/08 04:41:42;;;;;;;12.40;9.37;;;0.70;71.80;;;;;;5026417;28;20495;-41
2021/03/08 04:44:09;;;;;;;12.93;9.00;;;0.70;71.90;;;;;;5025039;28;20514;-41
2021/03/08 04:46:36;;;;;;;9.77;8.20;;;0.70;71.90;;;;;;4989670;28;20490;-41
2021/03/08 04:49:05;;;;;;;14.13;8.83;;;0.70;72.00;;;;;;5009706;28;20485;-41
2021/03/08 04:51:32;;;;;;;9.70;7.73;;;0.80;71.90;;;;;;5025718;28;20531;-41
2021/03/08 04:54:04;;;;;;;10.40;8.70;;;0.80;71.80;;;;;;5027265;28;20538;-41
2021/03/08 04:56:32;;;;;;;10.90;8.13;;;0.80;71.60;;;;;;5005680;28;20467;-41
2021/03/08 04:59:05;;;;;;;10.07;7.87;;;0.70;71.60;;;;;;5026991;28;20546;-41
2021/03/08 05:01:34;;;;;;;11.83;8.03;;;0.70;71.60;;;;;;5022668;28;20518;-41
2021/03/08 05:04:07;;;;;;;8.97;8.07;;;0.70;71.70;;;;;;5009021;28;20829;-41
2021/03/08 05:06:38;;;;;;;15.77;8.07;;;0.70;71.50;;;;;;5022499;28;20982;-41
2021/03/08 05:09:07;;;;;;;9.40;7.97;;;0.60;71.50;;;;;;5028295;28;20479;-41
2021/03/08 05:11:37;;;;;;;10.33;8.20;;;0.60;71.60;;;;;;5021333;28;20543;-41
2021/03/08 05:14:10;;;;;;;12.23;8.10;;;0.60;71.40;;;;;;5007045;28;20949;-41
2021/03/08 05:16:43;;;;;;;11.73;9.00;;;0.60;71.40;;;;;;5022105;28;20953;-41
2021/03/08 05:19:11;;;;;;;15.47;8.27;;;0.70;71.60;;;;;;5020756;28;20452;-41
2021/03/08 05:21:38;;;;;;;17.10;8.03;;;0.60;71.50;;;;;;5024660;28;20607;-41
2021/03/08 05:24:06;;;;;;;9.53;8.27;;;0.60;71.50;;;;;;5010379;28;20534;-41
2021/03/08 05:26:32;;;;;;;9.83;7.27;;;0.50;71.50;;;;;;5009552;28;20547;-41
2021/03/08 05:29:07;;;;;;;9.83;8.30;;;0.50;71.60;;;;;;5029321;28;20550;-41
2021/03/08 05:31:38;;;;;;;13.83;7.93;;;0.50;71.80;;;;;;5025282;28;20836;-41
2021/03/08 05:34:15;;;;;;;14.60;9.43;;;0.50;72.00;;;;;;5030188;28;20463;-41
2021/03/08 05:36:46;;;;;;;8.63;7.40;;;0.60;71.60;;;;;;5028935;28;21070;-41
2021/03/08 05:39:15;;;;;;;11.33;9.80;;;0.60;71.40;;;;;;5027858;28;20563;-41
2021/03/08 05:41:55;;;;;;;10.50;8.30;;;0.50;71.40;;;;;;5028134;28;20495;-41
2021/03/08 05:44:26;;;;;;;8.53;7.60;;;0.60;71.40;;;;;;5030436;28;20585;-41
2021/03/08 05:47:01;;;;;;;12.27;8.60;;;0.50;71.30;;;;;;5023753;28;20555;-41
2021/03/08 05:49:50;;;;;;;14.20;7.87;;;0.50;71.40;;;;;;5031428;28;20982;-41
2021/03/08 05:52:47;;;;;;;13.87;9.40;;;0.40;71.60;;;;;;5023359;28;20556;-41
2021/03/08 05:55:42;;;;;;;11.80;8.33;;;0.50;71.80;;;;;;5028533;28;20463;-41
2021/03/08 05:58:45;;;;;;;13.03;8.40;;;0.40;71.80;;;;;;5026729;28;20651;-41
2021/03/08 06:01:32;;;;;;;9.77;8.77;;;0.40;71.90;;;;;;5031697;28;20797;-41
2021/03/08 06:04:23;;;;;;;13.70;9.43;;;0.40;72.00;;;;;;5029625;28;20520;-41
2021/03/08 06:07:20;;;;;;;11.73;8.87;;;0.40;72.00;;;;;;5040056;28;20538;-41
2021/03/08 06:10:06;;;;;;;11.10;8.70;;;0.40;72.30;;;;;;5028954;28;20957;-42
2021/03/08 06:12:35;;;;;;;13.10;9.03;;;0.40;72.20;;;;;;5023688;28;20945;-41
2021/03/08 06:15:15;;;;;;;14.80;9.47;;;0.40;72.30;;;;;;5028165;28;20560;-41
2021/03/08 06:17:43;;;;;;;11.73;8.57;;;0.40;72.40;;;;;;5013248;28;20503;-41
2021/03/08 06:20:10;;;;;;;14.80;9.57;;;0.40;72.50;;;;;;5010854;28;20824;-41
2021/03/08 06:22:39;;;;;;;13.90;8.77;;;0.40;72.60;;;;;;5010093;28;20518;-41
2021/03/08 06:25:06;;;;;;;14.70;9.67;;;0.40;72.80;;;;;;5026837;28;20499;-41
2021/03/08 06:27:33;;;;;;;14.47;11.00;;;0.40;72.80;;;;;;5027469;28;20554;-41
2021/03/08 06:30:02;;;;;;;14.07;11.17;;;0.40;72.80;;;;;;5031239;28;20466;-41
2021/03/08 06:32:30;;;;;;;15.50;11.47;;;0.40;72.90;;;;;;5007713;28;20913;-41
2021/03/08 06:34:57;;;;;;;17.33;11.30;;;0.40;73.00;;;;;;5026849;28;20451;-41
2021/03/08 06:37:26;;;;;;;14.20;10.67;;;0.40;73.10;;;;;;5027212;28;20823;-41
2021/03/08 06:39:53;;;;;;;12.93;10.43;;;0.40;73.10;;;;;;5041920;28;20487;-41
2021/03/08 06:42:23;;;;;;;11.80;8.50;;;0.50;73.20;;;;;;5028337;28;20518;-41
2021/03/08 06:44:50;;;;;;;14.17;10.13;;;0.50;73.30;;;;;;4992180;28;21032;-41
2021/03/08 06:47:19;;;;;;;13.73;9.43;;;0.50;73.30;;;;;;5027359;28;20480;-41
2021/03/08 06:49:46;;;;;;;15.10;10.23;;;0.50;73.30;;;;;;5030757;28;20538;-41
2021/03/08 06:52:21;;;;;;;15.97;10.60;;;0.50;73.30;;;;;;5023662;28;21004;-41
2021/03/08 06:55:02;;;;;;;14.43;10.00;;;0.50;73.40;;;;;;5021808;28;20997;-41
2021/03/08 06:57:29;;;;;;;12.50;10.60;;;0.60;73.50;;;;;;5027533;28;20550;-41
2021/03/08 06:59:58;;;;;;;12.93;9.60;;;0.60;73.50;;;;;;5028643;28;20546;-41
2021/03/08 07:02:47;;;;;;;12.37;9.70;;;0.60;73.60;;;;;;5024465;28;20494;-41
2021/03/08 07:05:15;;;;;;;13.33;9.60;;;0.70;73.60;;;;;;5007133;28;20460;-41
2021/03/08 07:07:59;;;;;;;11.93;9.07;;;0.70;73.80;;;;;;5009907;28;20483;-41
2021/03/08 07:10:32;;;;;;;14.63;9.63;;;0.70;73.70;;;;;;5024046;28;20455;-41
2021/03/08 07:12:59;;;;;;;16.27;10.07;;;0.80;73.70;;;;;;5022066;28;20539;-41
2021/03/08 07:15:25;;;;;;;12.60;8.80;;;0.80;73.70;;;;;;5004825;28;20801;-41
2021/03/08 07:17:54;;;;;;;17.30;9.57;;;0.80;73.80;;;;;;5027346;28;20460;-41
2021/03/08 07:20:27;;;;;;;11.27;8.80;;;0.90;73.80;;;;;;5027954;28;20803;-41
2021/03/08 07:22:55;;;;;;;14.17;8.90;;;0.90;73.70;;;;;;5024466;28;20483;-41
2021/03/08 07:25:26;;;;;;;12.37;9.00;;;1.00;73.60;;;;;;5027025;28;20471;-41
2021/03/08 07:27:58;;;;;;;10.93;9.17;;;1.00;73.50;;;;;;5023689;28;21215;-41
2021/03/08 07:30:38;;;;;;;13.10;10.03;;;1.10;73.60;;;;;;5024623;28;20468;-41
2021/03/08 07:33:09;;;;;;;15.17;10.57;;;1.10;73.50;;;;;;5007864;28;20498;-42
2021/03/08 07:35:38;;;;;;;14.60;8.90;;;1.20;73.50;;;;;;5024961;28;20535;-41
2021/03/08 07:38:06;;;;;;;12.50;9.30;;;1.30;73.40;;;;;;5007422;28;20491;-42
2021/03/08 07:40:34;;;;;;;15.30;11.20;;;1.40;73.30;;;;;;5009116;28;20452;-41
2021/03/08 07:43:01;;;;;;;18.60;12.47;;;1.50;72.80;;;;;;5024282;28;20455;-42
2021/03/08 07:45:45;;;;;;;16.17;10.70;;;1.50;72.80;;;;;;5025498;28;20566;-41
2021/03/08 07:48:22;;;;;;;14.30;10.27;;;1.60;72.80;;;;;;5026315;28;20495;-41
2021/03/08 07:50:51;;;;;;;15.70;10.97;;;1.70;72.70;;;;;;5026044;28;20451;-41
2021/03/08 07:53:34;;;;;;;12.73;10.17;;;1.80;72.80;;;;;;5022207;28;20494;-41
2021/03/08 07:56:03;;;;;;;16.90;10.53;;;2.00;72.60;;;;;;5021249;28;20495;-42
2021/03/08 07:58:31;;;;;;;17.10;11.83;;;2.10;72.50;;;;;;5019273;28;20558;-41
2021/03/08 08:01:03;;;;;;;14.93;10.83;;;2.20;72.50;;;;;;5039966;28;20501;-41
2021/03/08 08:03:32;;;;;;;18.97;12.70;;;2.30;72.40;;;;;;5003092;28;20531;-42
2021/03/08 08:06:01;;;;;;;16.77;11.60;;;2.50;71.90;;;;;;5022573;28;20464;-42
2021/03/08 08:08:30;;;;;;;14.20;12.30;;;2.60;71.80;;;;;;5024908;28;20494;-42
2021/03/08 08:10:58;;;;;;;20.40;11.37;;;2.80;71.40;;;;;;5025755;28;20490;-41
2021/03/08 08:13:36;;;;;;;17.30;11.60;;;3.00;70.80;;;;;;5021248;28;20464;-42
2021/03/08 08:16:07;;;;;;;14.70;9.83;;;3.10;70.20;;;;;;5021842;28;20462;-41
2021/03/08 08:18:38;;;;;;;14.87;12.33;;;3.30;69.50;;;;;;5022252;28;20539;-42
2021/03/08 08:21:09;;;;;;;18.33;10.97;;;3.50;68.70;;;;;;5026676;28;20487;-41
2021/03/08 08:23:39;;;;;;;17.33;12.43;;;3.70;67.70;;;;;;5023249;28;20459;-42
2021/03/08 08:26:09;;;;;;;17.40;11.23;;;3.80;67.50;;;;;;5009258;28;20547;-42
2021/03/08 08:28:39;;;;;;;19.00;12.60;;;4.00;67.00;;;;;;5024824;28;20495;-42
2021/03/08 08:31:06;;;;;;;15.93;11.47;;;4.10;66.60;;;;;;5026525;28;20487;-41
2021/03/08 08:33:36;;;;;;;19.63;13.30;;;4.30;66.00;;;;;;5025332;28;20471;-42
2021/03/08 08:36:17;;;;;;;18.00;11.87;;;4.50;65.00;;;;;;5025214;28;20482;-42
2021/03/08 08:38:53;;;;;;;19.23;11.80;;;4.70;64.50;;;;;;5023098;28;20464;-42
2021/03/08 08:41:32;;;;;;;13.97;11.10;;;4.90;63.50;;;;;;5038357;28;20588;-42
2021/03/08 08:44:15;;;;;;;18.97;11.90;;;5.00;63.10;;;;;;5001957;28;20982;-42
2021/03/08 08:46:46;;;;;;;19.00;12.80;;;5.20;62.50;;;;;;5037540;28;20572;-42
2021/03/08 08:49:15;;;;;;;16.53;11.17;;;5.40;62.10;;;;;;5022173;28;20460;-42
2021/03/08 08:51:52;;;;;;;18.00;11.53;;;5.60;61.80;;;;;;4991435;28;20459;-42
2021/03/08 08:54:27;;;;;;;20.37;12.50;;;5.80;61.50;;;;;;5026440;28;20459;-42
2021/03/08 08:57:00;;;;;;;18.63;11.50;;;5.90;60.90;;;;;;5023957;28;20527;-42
2021/03/08 08:59:27;;;;;;;23.17;12.43;;;6.10;60.50;;;;;;5029082;28;20489;-42
2021/03/08 09:04:40;;;;;;;16.40;11.60;;;6.50;58.90;;;;;;5030555;28;20509;-42
2021/03/08 09:07:24;;;;;;;18.50;11.20;;;6.60;58.50;;;;;;4994629;28;20460;-42
2021/03/08 09:09:51;;;;;;;16.07;11.10;;;6.70;58.30;;;;;;5026686;28;21004;-42
2021/03/08 09:12:38;;;;;;;20.13;12.33;;;6.70;58.30;;;;;;5027960;28;20557;-42
2021/03/08 09:15:16;;;;;;;16.63;11.63;;;6.80;58.00;;;;;;5027263;28;20895;-41
2021/03/08 09:17:51;;;;;;;18.80;11.37;;;6.90;58.20;;;;;;5028800;28;20897;-42
2021/03/08 09:20:23;;;;;;;16.20;11.50;;;6.90;58.20;;;;;;5024745;28;20471;-41
2021/03/08 09:22:57;;;;;;;19.20;11.80;;;7.00;57.90;;;;;;5029431;28;20581;-42
2021/03/08 09:25:26;;;;;;;21.67;13.67;;;7.10;58.00;;;;;;5013988;28;20451;-42
2021/03/08 09:28:00;;;;;;;16.20;11.30;;;7.10;58.10;;;;;;5030220;28;20458;-42
2021/03/08 09:30:45;;;;;;;20.33;12.57;;;7.30;58.00;;;;;;5026106;28;20491;-41
2021/03/08 09:33:19;;;;;;;21.93;11.43;;;7.40;57.50;;;;;;5026132;28;20917;-41
2021/03/08 09:35:55;;;;;;;26.73;13.00;;;7.50;56.80;;;;;;5013433;28;20455;-42
2021/03/08 09:38:24;;;;;;;20.33;12.97;;;7.50;57.20;;;;;;5013272;28;20487;-42
2021/03/08 09:40:52;;;;;;;19.30;12.37;;;7.50;57.20;;;;;;5024053;28;20455;-41
2021/03/08 09:43:25;;;;;;;19.23;11.87;;;7.60;57.50;;;;;;5031219;28;20495;-41
2021/03/08 09:45:55;;;;;;;17.57;11.17;;;7.70;57.50;;;;;;5012541;28;20505;-41
2021/03/08 09:48:25;;;;;;;17.87;11.80;;;7.80;57.30;;;;;;5035618;28;20463;-41
2021/03/08 09:50:52;;;;;;;20.60;12.27;;;7.90;56.50;;;;;;5011966;28;20474;-41
2021/03/08 09:53:21;;;;;;;23.27;12.60;;;8.00;56.50;;;;;;5010874;28;20798;-40
2021/03/08 09:55:48;;;;;;;16.27;11.37;;;8.00;56.40;;;;;;5028949;28;20447;-41
2021/03/08 09:58:19;;;;;;;19.30;13.13;;;8.10;56.10;;;;;;5032335;28;20459;-41
2021/03/08 10:00:48;;;;;;;20.50;14.40;;;8.10;55.80;;;;;;5028714;28;21142;-41
2021/03/08 10:03:15;;;;;;;22.67;13.33;;;8.10;55.50;;;;;;5028517;28;20487;-41
2021/03/08 10:05:45;;;;;;;25.20;13.80;;;8.20;55.40;;;;;;5026790;28;20561;-41
2021/03/08 10:08:17;;;;;;;23.40;13.10;;;8.30;55.40;;;;;;5030291;28;20493;-41
2021/03/08 10:10:43;;;;;;;21.73;12.83;;;8.30;55.30;;;;;;5008052;28;20869;-41
2021/03/08 10:13:10;;;;;;;19.33;12.50;;;8.40;55.50;;;;;;5044837;28;20534;-41
2021/03/08 10:15:44;;;;;;;18.90;12.33;;;8.40;55.40;;;;;;5007106;28;20888;-41
2021/03/08 10:18:11;;;;;;;19.73;13.10;;;8.50;55.30;;;;;;5028099;28;20496;-41
2021/03/08 10:20:53;;;;;;;21.63;12.33;;;8.60;55.40;;;;;;4993198;28;20538;-41
2021/03/08 10:23:27;;;;;;;18.43;11.93;;;8.60;55.70;;;;;;5007782;28;20547;-41
2021/03/08 10:26:04;;;;;;;20.10;11.07;;;8.70;55.20;;;;;;5026389;28;20547;-41
2021/03/08 10:28:35;;;;;;;20.23;11.10;;;8.70;55.00;;;;;;5041740;28;20538;-41
2021/03/08 10:31:03;;;;;;;27.70;14.37;;;8.70;55.00;;;;;;5046000;28;20606;-41
2021/03/08 10:33:31;;;;;;;18.63;13.20;;;8.70;54.90;;;;;;5022982;28;20496;-41
2021/03/08 10:35:58;;;;;;;20.20;12.73;;;8.80;54.30;;;;;;5010132;28;20554;-41
2021/03/08 10:38:28;;;;;;;19.60;12.40;;;8.90;54.10;;;;;;5006673;28;20869;-41
2021/03/08 10:40:57;;;;;;;19.27;12.63;;;8.90;53.70;;;;;;5041545;28;20443;-41
2021/03/08 10:43:25;;;;;;;21.10;11.97;;;9.00;53.40;;;;;;5022718;28;20932;-40
2021/03/08 10:45:53;;;;;;;17.90;11.47;;;9.00;53.10;;;;;;5028145;28;20665;-40
2021/03/08 10:48:25;;;;;;;15.93;11.87;;;9.10;53.40;;;;;;5029909;28;20538;-41
2021/03/08 10:50:57;;;;;;;18.13;11.23;;;9.10;53.10;;;;;;5027288;28;20977;-41
2021/03/08 10:53:55;;;;;;;18.80;12.33;;;9.20;52.80;;;;;;5027861;28;20490;-40
2021/03/08 10:56:25;;;;;;;21.63;11.10;;;9.20;53.00;;;;;;5041805;28;20470;-41
2021/03/08 10:58:52;;;;;;;15.40;9.80;;;9.30;52.60;;;;;;5025463;28;20454;-41
2021/03/08 11:01:18;;;;;;;18.73;11.30;;;9.30;52.90;;;;;;5028178;28;20483;-41
2021/03/08 11:03:46;;;;;;;17.07;11.47;;;9.30;52.40;;;;;;5012866;28;20518;-41
2021/03/08 11:06:15;;;;;;;18.30;11.57;;;9.40;52.10;;;;;;5010246;28;20921;-41
2021/03/08 11:09:08;;;;;;;14.23;10.40;;;9.40;51.80;;;;;;5040831;28;20468;-41
2021/03/08 11:11:42;;;;;;;14.97;9.93;;;9.50;51.80;;;;;;5035418;28;20464;-41
2021/03/08 11:14:09;;;;;;;16.67;10.23;;;9.50;52.30;;;;;;5030049;28;20448;-40
2021/03/08 11:16:37;;;;;;;18.00;12.20;;;9.50;52.40;;;;;;4994309;28;20455;-41
2021/03/08 11:19:21;;;;;;;17.67;11.47;;;9.50;52.30;;;;;;5024082;28;20427;-41
2021/03/08 11:22:21;;;;;;;18.10;12.80;;;9.60;52.40;;;;;;5008453;28;21000;-41
2021/03/08 11:24:50;;;;;;;17.23;10.70;;;9.70;52.30;;;;;;4971688;28;21012;-41
2021/03/08 11:27:21;;;;;;;15.10;9.90;;;9.70;51.60;;;;;;5025549;28;20949;-41
2021/03/08 11:30:09;;;;;;;14.83;10.77;;;9.80;51.60;;;;;;5025128;28;20467;-40
2021/03/08 11:32:38;;;;;;;15.80;9.83;;;9.90;51.30;;;;;;5023258;28;20552;-41
2021/03/08 11:35:32;;;;;;;16.03;10.97;;;9.90;50.90;;;;;;5025285;28;20551;-41
2021/03/08 11:38:15;;;;;;;18.20;10.50;;;10.00;50.60;;;;;;5026044;28;20672;-41
2021/03/08 11:40:45;;;;;;;13.40;10.73;;;10.20;50.60;;;;;;5038541;28;20475;-41
2021/03/08 11:43:14;;;;;;;19.63;11.83;;;10.20;49.80;;;;;;5024732;28;20484;-41
2021/03/08 11:45:44;;;;;;;16.53;10.03;;;10.30;49.80;;;;;;5027111;28;20463;-40
2021/03/08 11:48:11;;;;;;;15.13;10.40;;;10.40;49.70;;;;;;5006845;28;20471;-41
2021/03/08 11:50:43;;;;;;;15.03;10.50;;;10.40;49.80;;;;;;5021734;28;20868;-41
2021/03/08 11:53:16;;;;;;;13.83;9.40;;;10.40;49.60;;;;;;5004928;28;20948;-41
2021/03/08 11:55:42;;;;;;;15.83;9.00;;;10.50;48.70;;;;;;5023032;28;20505;-41
2021/03/08 11:58:10;;;;;;;14.00;8.97;;;10.60;48.60;;;;;;4990457;28;20467;-41
2021/03/08 12:00:36;;;;;;;14.60;9.47;;;10.60;47.90;;;;;;5025702;28;20482;-41
2021/03/08 12:03:05;;;;;;;12.57;9.60;;;10.70;47.90;;;;;;5023691;28;20562;-41
2021/03/08 12:05:35;;;;;;;13.53;10.17;;;10.70;48.00;;;;;;5024459;28;20482;-41
2021/03/08 12:08:19;;;;;;;16.63;8.23;;;10.70;48.20;;;;;;5020872;28;20460;-41
2021/03/08 12:10:45;;;;;;;9.50;7.40;;;10.70;47.90;;;;;;5021744;28;20542;-41
2021/03/08 12:13:12;;;;;;;14.07;9.47;;;10.60;48.10;;;;;;5025322;28;20753;-41
2021/03/08 12:15:41;;;;;;;14.30;10.33;;;10.60;48.50;;;;;;5023380;28;20452;-41
2021/03/08 12:18:09;;;;;;;16.40;10.97;;;10.60;48.60;;;;;;5023801;28;20458;-41
2021/03/08 12:20:41;;;;;;;13.80;9.07;;;10.60;48.80;;;;;;5025462;28;20459;-40
2021/03/08 12:23:14;;;;;;;15.20;10.37;;;10.60;49.30;;;;;;5025066;28;20546;-41
2021/03/08 12:25:41;;;;;;;18.07;10.17;;;10.60;49.40;;;;;;5024013;28;20448;-41
2021/03/08 12:28:07;;;;;;;15.27;9.30;;;10.60;49.00;;;;;;5005229;28;20563;-41
2021/03/08 12:30:33;;;;;;;13.30;8.07;;;10.60;49.50;;;;;;5024275;28;20550;-41
2021/03/08 12:33:04;;;;;;;12.77;8.80;;;10.60;49.30;;;;;;5022496;28;20826;-41
2021/03/08 12:35:34;;;;;;;17.80;10.43;;;10.60;49.40;;;;;;5010942;28;20862;-41
2021/03/08 12:38:01;;;;;;;13.37;8.80;;;10.60;49.50;;;;;;5031922;28;20527;-41
2021/03/08 12:40:27;;;;;;;15.53;11.17;;;10.60;49.50;;;;;;5005891;28;20456;-41
2021/03/08 12:42:53;;;;;;;25.47;15.07;;;10.60;49.90;;;;;;5028265;28;20598;-41
2021/03/08 12:45:24;;;;;;;25.50;16.20;;;10.60;49.80;;;;;;5023625;28;21063;-41
2021/03/08 12:47:53;;;;;;;19.80;13.07;;;10.60;49.60;;;;;;4987684;28;20443;-41
2021/03/08 12:50:20;;;;;;;25.10;14.63;;;10.50;49.60;;;;;;5026310;28;20470;-41
2021/03/08 12:52:46;;;;;;;20.50;13.20;;;10.60;49.60;;;;;;5004532;28;20543;-41
2021/03/08 12:55:13;;;;;;;19.53;11.87;;;10.60;49.50;;;;;;5023282;28;20920;-41
2021/03/08 12:57:40;;;;;;;17.87;12.93;;;10.50;49.60;;;;;;4985097;28;20953;-41
2021/03/08 13:00:08;;;;;;;13.53;9.67;;;10.50;49.80;;;;;;5026777;28;20450;-41
2021/03/08 13:02:34;;;;;;;17.30;10.90;;;10.40;50.10;;;;;;5022075;28;20563;-41
2021/03/08 13:05:01;;;;;;;15.37;9.93;;;10.40;49.90;;;;;;5004126;28;20444;-41